createdAt,value
2022-11-02T00:00:41.230Z,101144.34
2022-11-02T00:03:08.454Z,101143.47
2022-11-02T00:05:35.262Z,101139.06
2022-11-02T00:08:01.590Z,101125.22
2022-11-02T00:10:29.772Z,101131.34
2022-11-02T00:12:56.429Z,101129.63
2022-11-02T00:15:26.701Z,101127.88
2022-11-02T00:17:58.546Z,101127.91
2022-11-02T00:20:27.784Z,101120.91
2022-11-02T00:22:57.733Z,101110.47
2022-11-02T00:25:26.057Z,101107.09
2022-11-02T00:27:53.018Z,101115.72
2022-11-02T00:30:19.786Z,101115.69
2022-11-02T00:32:46.570Z,101106.19
2022-11-02T00:35:13.021Z,101114.00
2022-11-02T00:37:39.678Z,101106.22
2022-11-02T00:40:06.632Z,101104.50
2022-11-02T00:42:33.208Z,101108.00
2022-11-02T00:44:59.581Z,101099.28
2022-11-02T00:47:25.974Z,101096.63
2022-11-02T00:49:52.297Z,101097.47
2022-11-02T00:52:18.606Z,101091.34
2022-11-02T00:54:44.969Z,101085.25
2022-11-02T00:57:11.438Z,101085.28
2022-11-02T00:59:37.890Z,101089.63
2022-11-02T01:02:04.649Z,101086.94
2022-11-02T01:04:31.196Z,101084.38
2022-11-02T01:06:57.741Z,101086.06
2022-11-02T01:09:24.513Z,101083.47
2022-11-02T01:11:51.505Z,101072.22
2022-11-02T01:14:17.904Z,101075.66
2022-11-02T01:19:16.079Z,101075.75
2022-11-02T01:21:42.519Z,101061.91
2022-11-02T01:24:08.898Z,101067.91
2022-11-02T01:26:35.279Z,101067.03
2022-11-02T01:29:01.659Z,101062.72
2022-11-02T01:31:27.942Z,101054.06
2022-11-02T01:33:54.322Z,101055.81
2022-11-02T01:38:52.574Z,101051.34
2022-11-02T01:41:18.941Z,101046.06
2022-11-02T01:43:54.576Z,101044.38
2022-11-02T01:46:30.111Z,101049.63
2022-11-02T01:49:08.327Z,101044.41
2022-11-02T01:51:59.720Z,101046.97
2022-11-02T01:54:28.762Z,101039.19
2022-11-02T01:57:07.073Z,101047.91
2022-11-02T01:59:45.862Z,101039.28
2022-11-02T02:02:18.103Z,101040.06
2022-11-02T02:04:47.808Z,101031.50
2022-11-02T02:07:15.837Z,101025.50
2022-11-02T02:09:44.165Z,101022.00
2022-11-02T02:12:13.962Z,101015.13
2022-11-02T02:14:40.397Z,101022.91
2022-11-02T02:17:14.525Z,101019.38
2022-11-02T02:19:52.050Z,101018.47
2022-11-02T02:22:40.351Z,101018.47
2022-11-02T02:25:32.243Z,101020.16
2022-11-02T02:28:30.247Z,101015.88
2022-11-02T02:31:04.313Z,101014.03
2022-11-02T02:34:02.528Z,101012.31
2022-11-02T02:36:52.180Z,101001.09
2022-11-02T02:39:39.142Z,100998.47
2022-11-02T02:42:14.580Z,100993.22
2022-11-02T02:44:46.873Z,100985.38
2022-11-02T02:47:23.441Z,100990.53
2022-11-02T02:50:03.390Z,100988.78
2022-11-02T02:52:32.495Z,100985.25
2022-11-02T02:55:00.836Z,100992.19
2022-11-02T02:57:31.583Z,100989.53
2022-11-02T02:59:58.699Z,100994.75
2022-11-02T03:02:29.880Z,100995.53
2022-11-02T03:04:56.202Z,100992.00
2022-11-02T03:07:33.974Z,100998.03
2022-11-02T03:10:16.639Z,100992.03
2022-11-02T03:12:58.378Z,100998.09
2022-11-02T03:15:40.296Z,100997.19
2022-11-02T03:18:30.901Z,100999.78
2022-11-02T03:21:01.335Z,101005.88
2022-11-02T03:23:39.426Z,101002.38
2022-11-02T03:26:08.941Z,100996.31
2022-11-02T03:28:57.098Z,100996.38
2022-11-02T03:31:35.598Z,101000.81
2022-11-02T03:34:14.386Z,101004.28
2022-11-02T03:36:51.846Z,101005.09
2022-11-02T03:39:24.859Z,100993.91
2022-11-02T03:41:54.144Z,100993.03
2022-11-02T03:44:25.129Z,100991.34
2022-11-02T03:46:56.486Z,101000.91
2022-11-02T03:49:24.650Z,101001.81
2022-11-02T03:51:52.762Z,100998.44
2022-11-02T03:54:42.684Z,100996.75
2022-11-02T03:57:17.972Z,101001.88
2022-11-02T03:59:44.679Z,101006.22
2022-11-02T04:02:13.575Z,101010.56
2022-11-02T04:04:49.228Z,100997.56
2022-11-02T04:07:19.825Z,100997.66
2022-11-02T04:09:46.131Z,101002.00
2022-11-02T04:12:30.976Z,101013.22
2022-11-02T04:14:57.286Z,101012.28
2022-11-02T04:17:42.353Z,101012.38
2022-11-02T04:20:09.279Z,101014.09
2022-11-02T04:22:54.006Z,101014.94
2022-11-02T04:25:21.011Z,101019.28
2022-11-02T04:27:50.224Z,101014.94
2022-11-02T04:30:18.836Z,101019.28
2022-11-02T04:33:05.873Z,101014.94
2022-11-02T04:35:33.620Z,101012.34
2022-11-02T04:38:18.782Z,101008.91
2022-11-02T04:40:45.390Z,101003.56
2022-11-02T04:43:11.957Z,101012.28
2022-11-02T04:45:38.483Z,101013.22
2022-11-02T04:48:07.948Z,101008.06
2022-11-02T04:50:35.660Z,101000.16
2022-11-02T04:53:04.225Z,100995.81
2022-11-02T04:55:31.282Z,100994.94
2022-11-02T04:57:57.706Z,100992.34
2022-11-02T05:00:24.507Z,100988.84
2022-11-02T05:02:51.203Z,100987.94
2022-11-02T05:05:18.049Z,100987.88
2022-11-02T05:07:44.411Z,100986.13
2022-11-02T05:10:11.422Z,100984.50
2022-11-02T05:12:37.772Z,100992.34
2022-11-02T05:15:04.839Z,100983.56
2022-11-02T05:17:31.303Z,100981.88
2022-11-02T05:19:57.580Z,100990.53
2022-11-02T05:22:23.952Z,100978.44
2022-11-02T05:24:50.260Z,100980.09
2022-11-02T05:27:16.683Z,100980.13
2022-11-02T05:29:42.993Z,100983.59
2022-11-02T05:32:09.282Z,100986.09
2022-11-02T05:34:35.609Z,100984.31
2022-11-02T05:37:01.909Z,100993.03
2022-11-02T05:39:28.223Z,100976.53
2022-11-02T05:41:54.610Z,100979.16
2022-11-02T05:44:20.896Z,100973.94
2022-11-02T05:46:47.186Z,100978.28
2022-11-02T05:49:13.533Z,100978.34
2022-11-02T05:51:39.851Z,100973.16
2022-11-02T05:54:06.164Z,100982.69
2022-11-02T05:56:32.479Z,100980.97
2022-11-02T05:58:58.759Z,100983.53
2022-11-02T06:01:25.108Z,100990.44
2022-11-02T06:03:53.696Z,100987.91
2022-11-02T06:06:20.586Z,100992.25
2022-11-02T06:08:46.898Z,100981.84
2022-11-02T06:11:14.425Z,100990.50
2022-11-02T06:13:41.810Z,100991.31
2022-11-02T06:16:10.563Z,101005.25
2022-11-02T06:18:38.261Z,101000.94
2022-11-02T06:21:04.879Z,100999.13
2022-11-02T06:23:31.285Z,101003.41
2022-11-02T06:25:59.578Z,100991.16
2022-11-02T06:28:26.429Z,100989.34
2022-11-02T06:30:53.087Z,101000.66
2022-11-02T06:33:20.167Z,101003.25
2022-11-02T06:35:48.066Z,101002.34
2022-11-02T06:38:14.913Z,101004.78
2022-11-02T06:40:41.228Z,101003.91
2022-11-02T06:43:23.380Z,100999.47
2022-11-02T06:45:50.205Z,101007.22
2022-11-02T06:48:16.617Z,101009.75
2022-11-02T06:50:43.133Z,101016.66
2022-11-02T06:53:09.393Z,101020.13
2022-11-02T06:55:35.721Z,101014.09
2022-11-02T06:58:02.065Z,101019.25
2022-11-02T07:00:29.753Z,101024.53
2022-11-02T07:03:05.093Z,101021.06
2022-11-02T07:05:32.553Z,101018.50
2022-11-02T07:07:59.570Z,101016.78
2022-11-02T07:10:26.911Z,101022.78
2022-11-02T07:12:54.695Z,101020.13
2022-11-02T07:15:22.368Z,101027.13
2022-11-02T07:17:49.020Z,101027.03
2022-11-02T07:20:15.509Z,101026.09
2022-11-02T07:22:42.152Z,101024.31
2022-11-02T07:25:08.812Z,101024.22
2022-11-02T07:27:39.988Z,101025.09
2022-11-02T07:30:07.824Z,101024.09
2022-11-02T07:32:44.494Z,101030.16
2022-11-02T07:35:12.742Z,101022.22
2022-11-02T07:37:39.753Z,101027.31
2022-11-02T07:40:08.796Z,101019.41
2022-11-02T07:42:35.526Z,101027.06
2022-11-02T07:45:01.968Z,101024.44
2022-11-02T07:47:28.301Z,101022.63
2022-11-02T07:49:54.882Z,101020.88
2022-11-02T07:52:21.192Z,101035.53
2022-11-02T07:54:47.535Z,101022.53
2022-11-02T07:57:13.863Z,101031.13
2022-11-02T07:59:40.359Z,101026.72
2022-11-02T08:02:09.601Z,101026.78
2022-11-02T08:04:38.394Z,101025.81
2022-11-02T08:07:07.216Z,101030.13
2022-11-02T08:09:33.933Z,101030.06
2022-11-02T08:12:00.382Z,101027.34
2022-11-02T08:14:26.858Z,101017.00
2022-11-02T08:16:53.283Z,101025.63
2022-11-02T08:19:19.602Z,101028.19
2022-11-02T08:21:45.925Z,101027.22
2022-11-02T08:24:12.262Z,101030.69
2022-11-02T08:26:41.002Z,101039.28
2022-11-02T08:29:10.765Z,101030.38
2022-11-02T08:31:40.152Z,101031.34
2022-11-02T08:34:06.686Z,101035.66
2022-11-02T08:36:36.704Z,101034.75
2022-11-02T08:39:03.352Z,101030.28
2022-11-02T08:41:29.731Z,101031.97
2022-11-02T08:43:57.351Z,101035.34
2022-11-02T08:46:23.724Z,101030.94
2022-11-02T08:48:52.886Z,101022.97
2022-11-02T08:51:19.277Z,101036.06
2022-11-02T08:53:51.145Z,101020.38
2022-11-02T08:56:18.075Z,101025.53
2022-11-02T08:58:44.401Z,101041.03
2022-11-02T09:01:10.740Z,101037.34
2022-11-02T09:03:37.208Z,101038.06
2022-11-02T09:06:03.716Z,101036.97
2022-11-02T09:08:30.621Z,101036.13
2022-11-02T09:11:02.330Z,101049.09
2022-11-02T09:13:29.001Z,101052.41
2022-11-02T09:15:57.617Z,101068.16
2022-11-02T09:18:25.035Z,101060.25
2022-11-02T09:20:51.920Z,101058.41
2022-11-02T09:23:20.542Z,101054.88
2022-11-02T09:25:47.036Z,101068.03
2022-11-02T09:28:15.272Z,101062.88
2022-11-02T09:30:42.114Z,101065.66
2022-11-02T09:33:09.173Z,101075.28
2022-11-02T09:35:39.034Z,101076.06
2022-11-02T09:38:06.014Z,101072.47
2022-11-02T09:40:36.970Z,101075.00
2022-11-02T09:43:27.108Z,101077.56
2022-11-02T09:46:06.294Z,101074.06
2022-11-02T09:48:43.235Z,101075.69
2022-11-02T09:51:44.681Z,101076.50
2022-11-02T09:54:39.172Z,101081.75
2022-11-02T09:57:11.783Z,101087.31
2022-11-02T09:59:38.209Z,101081.41
2022-11-02T10:02:13.369Z,101088.28
2022-11-02T10:05:20.604Z,101087.56
2022-11-02T10:08:38.041Z,101086.63
2022-11-02T10:11:33.385Z,101097.97
2022-11-02T10:14:15.019Z,101102.59
2022-11-02T10:16:55.274Z,101097.78
2022-11-02T10:19:24.994Z,101111.22
2022-11-02T10:21:58.275Z,101107.25
2022-11-02T10:24:42.640Z,101106.66
2022-11-02T10:27:33.044Z,101113.72
2022-11-02T10:30:20.193Z,101127.72
2022-11-02T10:32:52.647Z,101131.44
2022-11-02T10:35:45.840Z,101141.13
2022-11-02T10:38:44.112Z,101141.25
2022-11-02T10:41:25.024Z,101143.97
2022-11-02T10:44:23.654Z,101150.09
2022-11-02T10:47:21.938Z,101164.03
2022-11-02T10:49:55.768Z,101153.72
2022-11-02T10:52:22.529Z,101159.81
2022-11-02T10:54:52.118Z,101157.06
2022-11-02T10:57:25.665Z,101172.53
2022-11-02T11:00:28.064Z,101175.00
2022-11-02T11:03:14.854Z,101169.56
2022-11-02T11:05:50.346Z,101162.44
2022-11-02T11:08:35.413Z,101164.03
2022-11-02T11:11:22.043Z,101163.03
2022-11-02T11:20:35.740Z,101168.00
2022-11-02T11:23:25.219Z,101184.19
2022-11-02T11:26:26.266Z,101183.03
2022-11-02T11:28:57.477Z,101183.94
2022-11-02T11:31:24.529Z,101180.56
2022-11-02T11:33:54.540Z,101184.94
2022-11-02T11:36:23.072Z,101183.03
2022-11-02T11:38:50.834Z,101175.94
2022-11-02T11:41:17.618Z,101181.06
2022-11-02T11:43:46.302Z,101193.13
2022-11-02T11:46:13.972Z,101176.72
2022-11-02T11:48:48.943Z,101181.00
2022-11-02T11:51:37.472Z,101191.47
2022-11-02T11:54:05.390Z,101195.72
2022-11-02T11:56:32.950Z,101206.13
2022-11-02T11:58:59.371Z,101198.34
2022-11-02T12:01:25.753Z,101213.81
2022-11-02T12:03:56.074Z,101214.63
2022-11-02T12:06:54.515Z,101224.75
2022-11-02T12:09:32.055Z,101205.56
2022-11-02T12:12:17.246Z,101216.28
2022-11-02T12:14:52.488Z,101211.16
2022-11-02T12:17:24.801Z,101220.09
2022-11-02T12:20:28.599Z,101210.00
2022-11-02T12:23:19.859Z,101217.00
2022-11-02T12:26:21.523Z,101218.16
2022-11-02T12:29:12.631Z,101226.94
2022-11-02T12:31:45.764Z,101231.44
2022-11-02T12:34:24.744Z,101232.34
2022-11-02T12:37:31.649Z,101234.16
2022-11-02T12:39:54.350Z,101236.75
2022-11-02T12:42:28.792Z,101241.84
2022-11-02T12:44:57.891Z,101242.59
2022-11-02T12:47:36.294Z,101236.19
2022-11-02T12:50:11.328Z,101257.75
2022-11-02T12:52:48.864Z,101273.13
2022-11-02T12:55:20.278Z,101289.31
2022-11-02T12:57:48.122Z,101276.81
2022-11-02T13:00:22.387Z,101282.56
2022-11-02T13:03:02.767Z,101269.38
2022-11-02T13:05:43.453Z,101274.84
2022-11-02T13:08:19.720Z,101269.47
2022-11-02T13:10:57.302Z,101267.66
2022-11-02T13:13:45.433Z,101282.25
2022-11-02T13:16:15.425Z,101274.25
2022-11-02T13:18:49.632Z,101288.22
2022-11-02T13:21:23.119Z,101284.44
2022-11-02T13:23:54.784Z,101292.66
2022-11-02T13:26:30.036Z,101298.09
2022-11-02T13:29:07.591Z,101317.59
2022-11-02T13:31:37.686Z,101322.38
2022-11-02T13:34:11.031Z,101340.63
2022-11-02T13:36:40.958Z,101390.50
2022-11-02T13:39:35.141Z,101381.69
2022-11-02T13:42:25.621Z,101371.50
2022-11-02T13:45:15.211Z,101375.81
2022-11-02T13:48:22.793Z,101388.22
2022-11-02T13:50:51.992Z,101399.53
2022-11-02T13:53:26.150Z,101418.78
2022-11-02T13:55:57.401Z,101411.91
2022-11-02T13:58:25.478Z,101417.16
2022-11-02T14:00:54.377Z,101415.44
2022-11-02T14:03:42.964Z,101420.69
2022-11-02T14:06:15.048Z,101428.53
2022-11-02T14:08:48.683Z,101426.81
2022-11-02T14:11:14.965Z,101415.47
2022-11-02T14:13:53.580Z,101410.16
2022-11-02T14:16:58.005Z,101409.13
2022-11-02T14:19:47.384Z,101399.53
2022-11-02T14:22:18.611Z,101405.59
2022-11-02T14:24:44.943Z,101402.13
2022-11-02T14:27:18.940Z,101404.63
2022-11-02T14:29:45.241Z,101397.53
2022-11-02T14:32:20.721Z,101406.03
2022-11-02T14:35:17.296Z,101404.31
2022-11-02T14:37:59.378Z,101403.38
2022-11-02T14:40:36.195Z,101398.00
2022-11-02T14:43:26.766Z,101399.69
2022-11-02T14:46:13.547Z,101402.16
2022-11-02T14:48:50.100Z,101410.78
2022-11-02T14:51:24.247Z,101402.84
2022-11-02T14:53:57.199Z,101402.72
2022-11-02T14:56:24.892Z,101398.22
2022-11-02T14:58:55.779Z,101398.19
2022-11-02T15:01:23.098Z,101395.66
2022-11-02T15:03:50.336Z,101406.16
2022-11-02T15:06:27.112Z,101401.78
2022-11-02T15:08:58.967Z,101401.81
2022-11-02T15:12:10.554Z,101403.66
2022-11-02T15:14:37.878Z,101406.19
2022-11-02T15:17:10.262Z,101401.94
2022-11-02T15:19:46.169Z,101394.16
2022-11-02T15:22:31.323Z,101401.22
2022-11-02T15:25:05.674Z,101393.44
2022-11-02T15:27:34.635Z,101397.88
2022-11-02T15:30:02.631Z,101391.00
2022-11-02T15:32:34.613Z,101401.53
2022-11-02T15:35:02.235Z,101401.59
2022-11-02T15:37:37.418Z,101398.97
2022-11-02T15:40:22.218Z,101401.63
2022-11-02T15:42:56.255Z,101400.75
2022-11-02T15:45:50.579Z,101402.59
2022-11-02T15:48:39.928Z,101397.41
2022-11-02T15:51:21.624Z,101396.53
2022-11-02T15:53:56.985Z,101401.75
2022-11-02T15:56:35.834Z,101407.91
2022-11-02T15:59:37.230Z,101418.38
2022-11-02T16:02:26.690Z,101415.16
2022-11-02T16:04:56.679Z,101428.19
2022-11-02T16:07:33.450Z,101424.75
2022-11-02T16:10:26.993Z,101428.16
2022-11-02T16:13:14.083Z,101430.78
2022-11-02T16:15:42.334Z,101433.50
2022-11-02T16:18:29.565Z,101436.97
2022-11-02T16:21:00.495Z,101447.44
2022-11-02T16:23:30.055Z,101443.09
2022-11-02T16:25:59.029Z,101446.56
2022-11-02T16:28:26.425Z,101454.38
2022-11-02T16:30:59.039Z,101457.06
2022-11-02T16:33:29.012Z,101457.09
2022-11-02T16:35:55.828Z,101461.47
2022-11-02T16:38:23.265Z,101452.84
2022-11-02T16:40:50.318Z,101460.66
2022-11-02T16:43:17.207Z,101459.81
2022-11-02T16:45:49.061Z,101465.88
2022-11-02T16:48:29.989Z,101459.81
2022-11-02T16:51:19.714Z,101463.28
2022-11-02T16:53:46.351Z,101465.00
2022-11-02T16:56:32.507Z,101461.56
2022-11-02T16:59:06.114Z,101465.94
2022-11-02T17:01:38.759Z,101474.63
2022-11-02T17:04:17.641Z,101471.19
2022-11-02T17:06:45.138Z,101474.69
2022-11-02T17:09:25.673Z,101472.09
2022-11-02T17:11:55.730Z,101481.69
2022-11-02T17:14:23.320Z,101486.03
2022-11-02T17:17:07.292Z,101488.63
2022-11-02T17:19:39.832Z,101492.13
2022-11-02T17:22:21.329Z,101492.13
2022-11-02T17:24:48.855Z,101500.78
2022-11-02T17:27:27.114Z,101502.50
2022-11-02T17:29:54.779Z,101507.69
2022-11-02T17:32:21.953Z,101506.84
2022-11-02T17:34:52.758Z,101505.09
2022-11-02T17:37:24.724Z,101511.13
2022-11-02T17:39:51.763Z,101514.56
2022-11-02T17:42:37.315Z,101513.69
2022-11-02T17:45:22.582Z,101510.19
2022-11-02T17:47:48.888Z,101524.91
2022-11-02T17:50:15.714Z,101516.28
2022-11-02T17:52:42.056Z,101526.69
2022-11-02T17:55:18.035Z,101524.09
2022-11-02T17:57:44.574Z,101524.06
2022-11-02T18:00:12.122Z,101524.06
2022-11-02T18:02:40.573Z,101519.69
2022-11-02T18:05:19.933Z,101523.16
2022-11-02T18:07:46.257Z,101519.66
2022-11-02T18:10:12.735Z,101530.91
2022-11-02T18:12:39.142Z,101529.22
2022-11-02T18:15:06.008Z,101530.94
2022-11-02T18:17:34.960Z,101524.88
2022-11-02T18:20:01.505Z,101531.78
2022-11-02T18:22:27.834Z,101526.56
2022-11-02T18:24:54.119Z,101522.25
2022-11-02T18:27:21.701Z,101528.28
2022-11-02T18:29:50.271Z,101527.44
2022-11-02T18:32:16.685Z,101529.19
2022-11-02T18:34:42.950Z,101526.53
2022-11-02T18:37:09.371Z,101529.13
2022-11-02T18:39:35.640Z,101532.56
2022-11-02T18:42:01.948Z,101529.09
2022-11-02T18:44:28.238Z,101530.81
2022-11-02T18:46:55.046Z,101520.41
2022-11-02T18:49:21.328Z,101527.34
2022-11-02T18:51:47.761Z,101525.63
2022-11-02T18:54:14.871Z,101527.34
2022-11-02T18:56:41.215Z,101516.09
2022-11-02T18:59:07.640Z,101515.22
2022-11-02T19:01:34.394Z,101503.09
2022-11-02T19:04:01.289Z,101513.47
2022-11-02T19:06:48.699Z,101514.38
2022-11-02T19:09:19.805Z,101512.66
2022-11-02T19:11:52.089Z,101511.78
2022-11-02T19:14:20.079Z,101505.72
2022-11-02T19:16:46.668Z,101505.75
2022-11-02T19:19:13.315Z,101510.09
2022-11-02T19:21:39.681Z,101504.88
2022-11-02T19:24:07.089Z,101503.09
2022-11-02T19:26:34.170Z,101505.69
2022-11-02T19:29:04.907Z,101510.91
2022-11-02T19:31:34.386Z,101503.94
2022-11-02T19:34:01.039Z,101504.75
2022-11-02T19:36:27.667Z,101504.75
2022-11-02T19:38:54.084Z,101502.16
2022-11-02T19:41:21.577Z,101497.78
2022-11-02T19:43:47.919Z,101495.13
2022-11-02T19:46:22.448Z,101500.31
2022-11-02T19:48:49.372Z,101490.88
2022-11-02T19:51:20.373Z,101494.34
2022-11-02T19:53:49.397Z,101503.91
2022-11-02T19:56:17.278Z,101500.41
2022-11-02T19:58:45.475Z,101500.34
2022-11-02T20:01:13.331Z,101501.19
2022-11-02T20:03:40.445Z,101496.00
2022-11-02T20:06:09.605Z,101499.53
2022-11-02T20:08:35.942Z,101503.84
2022-11-02T20:11:21.421Z,101499.50
2022-11-02T20:13:48.878Z,101498.56
2022-11-02T20:16:18.322Z,101495.13
2022-11-02T20:18:46.707Z,101495.06
2022-11-02T20:21:18.328Z,101500.25
2022-11-02T20:23:45.415Z,101504.53
2022-11-02T20:26:14.319Z,101496.78
2022-11-02T20:28:44.590Z,101500.19
2022-11-02T20:31:14.095Z,101492.38
2022-11-02T20:33:40.735Z,101493.25
2022-11-02T20:36:08.077Z,101493.25
2022-11-02T20:38:35.758Z,101495.00
2022-11-02T20:41:09.466Z,101489.78
2022-11-02T20:43:37.084Z,101494.94
2022-11-02T20:46:36.975Z,101481.97
2022-11-02T20:49:14.045Z,101493.19
2022-11-02T20:51:47.830Z,101487.13
2022-11-02T20:54:14.139Z,101481.94
2022-11-02T20:56:40.449Z,101476.72
2022-11-02T20:59:06.816Z,101480.19
2022-11-02T21:01:34.754Z,101471.53
2022-11-02T21:04:01.243Z,101468.06
2022-11-02T21:06:27.565Z,101469.81
2022-11-02T21:08:53.905Z,101463.75
2022-11-02T21:11:38.934Z,101462.03
2022-11-02T21:14:05.247Z,101459.44
2022-11-02T21:16:31.548Z,101462.00
2022-11-02T21:18:57.865Z,101462.81
2022-11-02T21:21:24.129Z,101456.75
2022-11-02T21:23:50.502Z,101455.88
2022-11-02T21:26:17.126Z,101462.75
2022-11-02T21:28:47.451Z,101463.56
2022-11-02T21:31:16.476Z,101460.03
2022-11-02T21:33:44.114Z,101462.59
2022-11-02T21:36:10.606Z,101466.97
2022-11-02T21:38:37.544Z,101466.16
2022-11-02T21:41:06.312Z,101460.09
2022-11-02T21:43:35.848Z,101462.63
2022-11-02T21:46:03.589Z,101460.03
2022-11-02T21:48:32.313Z,101460.03
2022-11-02T21:51:00.348Z,101458.38
2022-11-02T21:53:26.814Z,101448.84
2022-11-02T21:56:08.308Z,101438.44
2022-11-02T21:58:35.531Z,101444.47
2022-11-02T22:01:24.282Z,101436.66
2022-11-02T22:03:51.767Z,101439.22
2022-11-02T22:06:20.821Z,101442.75
2022-11-02T22:08:47.491Z,101428.91
2022-11-02T22:11:27.523Z,101438.41
2022-11-02T22:13:55.950Z,101435.81
2022-11-02T22:16:31.901Z,101429.72
2022-11-02T22:19:00.161Z,101426.28
2022-11-02T22:21:29.328Z,101421.09
2022-11-02T22:23:56.487Z,101421.03
2022-11-02T22:26:25.619Z,101427.03
2022-11-02T22:28:52.516Z,101425.31
2022-11-02T22:31:24.643Z,101426.16
2022-11-02T22:33:53.486Z,101421.00
2022-11-02T22:36:22.850Z,101423.59
2022-11-02T22:38:53.672Z,101429.63
2022-11-02T22:41:30.434Z,101421.06
2022-11-02T22:43:59.656Z,101427.88
2022-11-02T22:46:27.455Z,101422.69
2022-11-02T22:48:56.294Z,101417.44
2022-11-02T22:51:25.894Z,101420.94
2022-11-02T22:53:52.223Z,101407.88
2022-11-02T22:56:20.784Z,101412.22
2022-11-02T22:58:48.205Z,101406.16
2022-11-02T23:01:17.420Z,101400.97
2022-11-02T23:03:44.114Z,101399.16
2022-11-02T23:06:11.461Z,101395.78
2022-11-02T23:08:45.831Z,101394.13
2022-11-02T23:11:22.671Z,101394.94
2022-11-02T23:13:57.476Z,101399.28
2022-11-02T23:16:29.658Z,101389.81
2022-11-02T23:19:29.634Z,101387.16
2022-11-02T23:22:29.832Z,101378.59
2022-11-02T23:25:10.945Z,101382.00
2022-11-02T23:27:58.122Z,101392.41
2022-11-02T23:30:44.762Z,101372.44
2022-11-02T23:33:11.090Z,101372.44
2022-11-02T23:35:56.438Z,101364.69
2022-11-02T23:38:22.800Z,101363.00
2022-11-02T23:40:53.591Z,101358.78
2022-11-02T23:43:19.970Z,101357.84
2022-11-02T23:45:46.251Z,101352.69
2022-11-02T23:48:12.603Z,101349.25
2022-11-02T23:50:57.886Z,101345.81
2022-11-02T23:53:42.909Z,101347.53
2022-11-02T23:56:35.053Z,101335.44
2022-11-02T23:59:07.442Z,101335.44
